Time;durP1;ratioP1;P1;durP2;ratioP2;P2;SDS_P1;SDS_P2;PMS_P1;PMS_P2;Temp;Humidity;BMP_temperature;BMP_pressure;BME280_temperature;BME280_humidity;BME280_pressure;Samples;Min_cycle;Max_cycle;Signal;HPM_P1;HPM_P2
2022/02/13 00:01:51;;;;;;;12.63;7.57;;;;;;;;;;4976095;28;20102;-64
2022/02/13 00:04:18;;;;;;;13.05;8.38;;;;;;;;;;4975557;28;20577;-65
2022/02/13 00:06:44;;;;;;;13.25;8.20;;;;;;;;;;4976039;28;20055;-65
2022/02/13 00:09:11;;;;;;;10.80;6.95;;;;;;;;;;4975844;28;20098;-63
2022/02/13 00:11:38;;;;;;;15.77;8.27;;;;;;;;;;4975782;28;20129;-65
2022/02/13 00:14:05;;;;;;;10.50;7.13;;;;;;;;;;4975204;28;20055;-64
2022/02/13 00:16:31;;;;;;;13.30;7.55;;;;;;;;;;4975737;28;20050;-64
2022/02/13 00:18:58;;;;;;;13.80;8.95;;;;;;;;;;4975882;28;20048;-63
2022/02/13 00:21:44;;;;;;;13.18;8.43;;;;;;;;;;4976016;28;20078;-65
2022/02/13 00:24:12;;;;;;;14.48;8.77;;;;;;;;;;4975137;28;20047;-64
2022/02/13 00:26:39;;;;;;;13.15;8.57;;;;;;;;;;4975700;28;20081;-64
2022/02/13 00:29:07;;;;;;;14.90;8.75;;;;;;;;;;4975444;28;20047;-64
2022/02/13 00:31:33;;;;;;;13.15;8.10;;;;;;;;;;4975337;28;20062;-63
2022/02/13 00:34:00;;;;;;;12.32;8.43;;;;;;;;;;4975158;28;20106;-64
2022/02/13 00:36:27;;;;;;;12.75;8.43;;;;;;;;;;4975251;28;20055;-64
2022/02/13 00:38:53;;;;;;;10.48;7.30;;;;;;;;;;4975302;28;20054;-65
2022/02/13 00:41:20;;;;;;;10.13;7.22;;;;;;;;;;4975294;28;20122;-63
2022/02/13 00:43:46;;;;;;;11.20;6.50;;;;;;;;;;4974971;28;20055;-65
2022/02/13 00:46:13;;;;;;;10.35;7.57;;;;;;;;;;4975168;28;20438;-64
2022/02/13 00:48:40;;;;;;;11.18;7.43;;;;;;;;;;4975377;28;20207;-64
2022/02/13 00:51:06;;;;;;;12.52;8.07;;;;;;;;;;4975007;28;20093;-63
2022/02/13 00:53:33;;;;;;;12.35;7.82;;;;;;;;;;4974704;28;20051;-64
2022/02/13 00:56:00;;;;;;;10.35;7.00;;;;;;;;;;4974951;28;20054;-63
2022/02/13 00:58:28;;;;;;;12.80;7.50;;;;;;;;;;4974878;28;20058;-63
2022/02/13 01:00:55;;;;;;;10.95;7.07;;;;;;;;;;4974977;28;20050;-63
2022/02/13 01:03:22;;;;;;;13.13;7.63;;;;;;;;;;4974614;28;20047;-64
2022/02/13 01:05:48;;;;;;;10.15;6.57;;;;;;;;;;4974917;28;20080;-64
2022/02/13 01:08:15;;;;;;;10.45;7.00;;;;;;;;;;4974769;28;20101;-64
2022/02/13 01:10:41;;;;;;;12.15;7.65;;;;;;;;;;4974648;28;20042;-65
2022/02/13 01:13:08;;;;;;;11.85;6.90;;;;;;;;;;4974473;28;20055;-64
2022/02/13 01:15:35;;;;;;;10.57;7.10;;;;;;;;;;4974318;28;20054;-63
2022/02/13 01:18:01;;;;;;;11.82;7.47;;;;;;;;;;4974634;28;20051;-65
2022/02/13 01:20:28;;;;;;;11.48;7.18;;;;;;;;;;4974443;28;20046;-64
2022/02/13 01:22:55;;;;;;;11.90;7.00;;;;;;;;;;4974100;28;20494;-64
2022/02/13 01:25:21;;;;;;;10.43;6.18;;;;;;;;;;4973144;28;20445;-64
2022/02/13 01:27:48;;;;;;;12.15;7.35;;;;;;;;;;4974536;28;20050;-65
2022/02/13 01:30:14;;;;;;;12.63;6.90;;;;;;;;;;4974170;28;20050;-64
2022/02/13 01:32:41;;;;;;;10.95;6.90;;;;;;;;;;4988989;28;20062;-64
2022/02/13 01:35:09;;;;;;;10.20;7.05;;;;;;;;;;4974236;28;20093;-64
2022/02/13 01:37:36;;;;;;;12.30;8.10;;;;;;;;;;4974177;28;20054;-65
2022/02/13 01:40:03;;;;;;;12.35;7.88;;;;;;;;;;4974461;28;20055;-65
2022/02/13 01:42:30;;;;;;;10.25;7.47;;;;;;;;;;4973729;28;20105;-65
2022/02/13 01:44:58;;;;;;;11.32;7.57;;;;;;;;;;4973784;28;20125;-65
2022/02/13 01:47:24;;;;;;;12.60;7.38;;;;;;;;;;4974016;28;20395;-64
2022/02/13 01:49:51;;;;;;;11.50;7.60;;;;;;;;;;4973957;28;20078;-65
2022/02/13 01:52:17;;;;;;;10.02;7.25;;;;;;;;;;4973747;28;20043;-65
2022/02/13 01:54:44;;;;;;;12.38;7.50;;;;;;;;;;4974088;28;20050;-65
2022/02/13 01:57:11;;;;;;;12.00;8.25;;;;;;;;;;4974221;28;20057;-65
2022/02/13 01:59:38;;;;;;;10.88;6.95;;;;;;;;;;4974122;28;20046;-65
2022/02/13 02:02:05;;;;;;;10.85;6.93;;;;;;;;;;4973643;28;20047;-65
2022/02/13 02:04:31;;;;;;;10.80;7.28;;;;;;;;;;4973767;28;20051;-64
2022/02/13 02:07:00;;;;;;;23.55;11.15;;;;;;;;;;4973662;28;20055;-64
2022/02/13 02:09:27;;;;;;;26.70;11.52;;;;;;;;;;4973755;28;20102;-65
2022/02/13 02:11:53;;;;;;;26.98;12.43;;;;;;;;;;4973591;28;20054;-65
2022/02/13 02:14:20;;;;;;;26.30;12.93;;;;;;;;;;4972883;28;20457;-65
2022/02/13 02:16:47;;;;;;;12.52;7.63;;;;;;;;;;4973514;28;20469;-65
2022/02/13 02:19:13;;;;;;;12.38;7.10;;;;;;;;;;4973437;28;20090;-65
2022/02/13 02:21:42;;;;;;;14.00;7.70;;;;;;;;;;4973295;28;20074;-63
2022/02/13 02:24:13;;;;;;;11.80;6.57;;;;;;;;;;4973090;28;20082;-65
2022/02/13 02:26:40;;;;;;;11.80;7.45;;;;;;;;;;4973962;28;20051;-65
2022/02/13 02:29:06;;;;;;;12.02;8.13;;;;;;;;;;4973350;28;20418;-64
2022/02/13 02:31:33;;;;;;;10.80;7.05;;;;;;;;;;4973305;28;20043;-64
2022/02/13 02:34:00;;;;;;;11.48;7.63;;;;;;;;;;4972992;28;20109;-64
2022/02/13 02:36:26;;;;;;;9.60;6.93;;;;;;;;;;4973013;28;20051;-63
2022/02/13 02:38:53;;;;;;;10.93;7.55;;;;;;;;;;4973250;28;20113;-65
2022/02/13 02:41:20;;;;;;;13.35;7.32;;;;;;;;;;4972997;28;20101;-65
2022/02/13 02:43:46;;;;;;;12.52;7.55;;;;;;;;;;4972983;28;20416;-65
2022/02/13 02:46:13;;;;;;;12.90;7.60;;;;;;;;;;4972982;28;20503;-64
2022/02/13 02:48:40;;;;;;;11.38;7.45;;;;;;;;;;4973301;28;20054;-64
2022/02/13 02:51:07;;;;;;;10.88;6.85;;;;;;;;;;4972904;28;20047;-64
2022/02/13 02:53:33;;;;;;;13.52;7.38;;;;;;;;;;4972816;28;20109;-63
2022/02/13 02:56:00;;;;;;;11.88;7.10;;;;;;;;;;4972128;28;20494;-65
2022/02/13 02:58:27;;;;;;;13.15;7.72;;;;;;;;;;4972766;28;20051;-64
2022/02/13 03:00:54;;;;;;;10.38;7.28;;;;;;;;;;4973164;28;20050;-64
2022/02/13 03:03:21;;;;;;;11.98;7.55;;;;;;;;;;4972487;28;20059;-64
2022/02/13 03:05:51;;;;;;;10.55;6.97;;;;;;;;;;4972871;28;20109;-64
2022/02/13 03:08:18;;;;;;;11.07;7.20;;;;;;;;;;4972820;28;20058;-64
2022/02/13 03:10:45;;;;;;;11.55;7.20;;;;;;;;;;4972736;28;20047;-64
2022/02/13 03:13:14;;;;;;;10.43;7.10;;;;;;;;;;4972778;28;20474;-64
2022/02/13 03:15:41;;;;;;;10.30;7.50;;;;;;;;;;4972169;28;20062;-64
2022/02/13 03:18:07;;;;;;;9.40;7.13;;;;;;;;;;4972688;28;20050;-63
2022/02/13 03:20:34;;;;;;;16.15;8.10;;;;;;;;;;4972691;28;20106;-63
2022/02/13 03:23:00;;;;;;;12.02;7.53;;;;;;;;;;4972271;28;20502;-64
2022/02/13 03:25:27;;;;;;;14.10;8.00;;;;;;;;;;4972423;28;20051;-64
2022/02/13 03:27:54;;;;;;;11.57;6.53;;;;;;;;;;4972694;28;20488;-63
2022/02/13 03:30:20;;;;;;;13.20;7.40;;;;;;;;;;4972623;28;20055;-64
2022/02/13 03:32:47;;;;;;;10.88;7.22;;;;;;;;;;4972151;28;20046;-64
2022/02/13 03:35:13;;;;;;;9.55;6.78;;;;;;;;;;4972558;28;20058;-65
2022/02/13 03:37:42;;;;;;;12.40;7.05;;;;;;;;;;4972550;28;20051;-64
2022/02/13 03:40:10;;;;;;;9.23;6.57;;;;;;;;;;4972517;28;20564;-64
2022/02/13 03:42:37;;;;;;;12.13;7.57;;;;;;;;;;4972226;28;20105;-64
2022/02/13 03:45:04;;;;;;;11.23;7.65;;;;;;;;;;4972570;28;20490;-65
2022/02/13 03:47:30;;;;;;;11.63;7.70;;;;;;;;;;4972237;28;20054;-64
2022/02/13 03:49:57;;;;;;;12.10;7.55;;;;;;;;;;4972537;28;20473;-65
2022/02/13 03:52:24;;;;;;;11.82;8.52;;;;;;;;;;4972058;28;20395;-65
2022/02/13 03:54:50;;;;;;;10.93;8.25;;;;;;;;;;4972450;28;20133;-64
2022/02/13 03:57:17;;;;;;;11.57;7.25;;;;;;;;;;4972200;28;20407;-64
2022/02/13 03:59:43;;;;;;;10.98;7.30;;;;;;;;;;4972579;28;20113;-64
2022/02/13 04:02:11;;;;;;;10.50;6.90;;;;;;;;;;4972198;28;20445;-64
2022/02/13 04:04:37;;;;;;;16.50;7.75;;;;;;;;;;4972269;28;20074;-65
2022/02/13 04:07:04;;;;;;;14.63;7.60;;;;;;;;;;4974047;28;20062;-64
2022/02/13 04:09:31;;;;;;;11.68;7.55;;;;;;;;;;4975722;28;20399;-63
2022/02/13 04:11:58;;;;;;;11.55;7.22;;;;;;;;;;4975691;28;20043;-64
2022/02/13 04:14:24;;;;;;;13.55;7.85;;;;;;;;;;4989766;28;20190;-64
2022/02/13 04:16:51;;;;;;;13.20;7.55;;;;;;;;;;4975698;28;20054;-64
2022/02/13 04:19:17;;;;;;;12.70;7.78;;;;;;;;;;4975661;28;20055;-65
2022/02/13 04:21:44;;;;;;;9.40;6.80;;;;;;;;;;4975453;28;20506;-64
2022/02/13 04:24:10;;;;;;;11.27;7.57;;;;;;;;;;4975201;28;20121;-65
2022/02/13 04:26:37;;;;;;;11.40;7.53;;;;;;;;;;4975291;28;20121;-64
2022/02/13 04:29:04;;;;;;;8.15;6.10;;;;;;;;;;4975475;28;20113;-64
2022/02/13 04:31:30;;;;;;;11.68;7.28;;;;;;;;;;4975147;28;20101;-65
2022/02/13 04:33:57;;;;;;;8.55;6.18;;;;;;;;;;4975413;28;20576;-65
2022/02/13 04:36:23;;;;;;;11.00;6.53;;;;;;;;;;4975153;28;20054;-64
2022/02/13 04:38:50;;;;;;;11.52;7.50;;;;;;;;;;4975461;28;20058;-65
2022/02/13 04:41:17;;;;;;;10.55;6.40;;;;;;;;;;4975222;28;20097;-64
2022/02/13 04:43:43;;;;;;;11.23;6.65;;;;;;;;;;4975071;28;20105;-65
2022/02/13 04:46:10;;;;;;;8.98;7.22;;;;;;;;;;4975015;28;20093;-63
2022/02/13 04:48:36;;;;;;;10.48;6.55;;;;;;;;;;4975041;28;20108;-64
2022/02/13 04:51:03;;;;;;;12.27;7.03;;;;;;;;;;4975328;28;20059;-65
2022/02/13 04:53:29;;;;;;;10.98;6.97;;;;;;;;;;4974870;28;20054;-65
2022/02/13 04:55:57;;;;;;;11.25;7.47;;;;;;;;;;4975088;28;20502;-64
2022/02/13 04:58:24;;;;;;;11.13;6.55;;;;;;;;;;4974794;28;20070;-64
2022/02/13 05:00:50;;;;;;;13.27;6.43;;;;;;;;;;4974920;28;20565;-64
2022/02/13 05:03:17;;;;;;;9.82;6.80;;;;;;;;;;4974831;28;20051;-65
2022/02/13 05:05:43;;;;;;;11.75;6.95;;;;;;;;;;4974872;28;20055;-65
2022/02/13 05:08:10;;;;;;;10.20;6.35;;;;;;;;;;4974664;28;20055;-64
2022/02/13 05:10:36;;;;;;;11.40;6.57;;;;;;;;;;4974794;28;20054;-64
2022/02/13 05:13:03;;;;;;;10.10;6.78;;;;;;;;;;4974240;28;20066;-65
2022/02/13 05:15:32;;;;;;;9.93;6.40;;;;;;;;;;4974166;28;20050;-65
2022/02/13 05:17:59;;;;;;;9.23;6.97;;;;;;;;;;4973645;28;20055;-65
2022/02/13 05:20:25;;;;;;;13.38;7.45;;;;;;;;;;4974598;28;20061;-64
2022/02/13 05:22:52;;;;;;;11.93;7.28;;;;;;;;;;4974161;28;20050;-65
2022/02/13 05:25:19;;;;;;;10.07;7.38;;;;;;;;;;4974441;28;20404;-65
2022/02/13 05:27:45;;;;;;;9.63;6.93;;;;;;;;;;4974455;28;20054;-66
2022/02/13 05:30:12;;;;;;;11.65;7.75;;;;;;;;;;4974357;28;20489;-65
2022/02/13 05:32:39;;;;;;;9.50;6.35;;;;;;;;;;4973909;28;20046;-64
2022/02/13 05:35:06;;;;;;;10.88;6.97;;;;;;;;;;4974280;28;20055;-65
2022/02/13 05:37:32;;;;;;;11.02;6.90;;;;;;;;;;4974221;28;20118;-65
2022/02/13 05:39:59;;;;;;;10.35;7.57;;;;;;;;;;4974370;28;20046;-65
2022/02/13 05:42:26;;;;;;;10.25;6.57;;;;;;;;;;4974090;28;20051;-63
2022/02/13 05:44:54;;;;;;;14.18;8.00;;;;;;;;;;4974236;28;20054;-64
2022/02/13 05:47:21;;;;;;;11.55;8.00;;;;;;;;;;4974130;28;20050;-64
2022/02/13 05:49:47;;;;;;;9.45;6.68;;;;;;;;;;4974076;28;20502;-64
2022/02/13 05:52:14;;;;;;;15.45;7.13;;;;;;;;;;4973569;28;20395;-63
2022/02/13 05:54:43;;;;;;;10.50;6.80;;;;;;;;;;4973991;28;20053;-63
2022/02/13 05:57:09;;;;;;;10.35;6.13;;;;;;;;;;4973794;28;20105;-64
2022/02/13 05:59:37;;;;;;;11.80;6.32;;;;;;;;;;4973746;28;20051;-64
2022/02/13 06:02:03;;;;;;;11.50;7.10;;;;;;;;;;4973535;28;20082;-63
2022/02/13 06:04:30;;;;;;;10.48;6.43;;;;;;;;;;4973634;28;20872;-64
2022/02/13 06:06:57;;;;;;;10.07;7.07;;;;;;;;;;4973744;28;20473;-63
2022/02/13 06:09:23;;;;;;;8.55;5.95;;;;;;;;;;4973639;28;20194;-62
2022/02/13 06:11:50;;;;;;;9.00;6.07;;;;;;;;;;4973520;28;20491;-63
2022/02/13 06:14:17;;;;;;;8.57;6.25;;;;;;;;;;4971401;28;20061;-64
2022/02/13 06:16:43;;;;;;;10.15;6.28;;;;;;;;;;4972522;28;20055;-64
2022/02/13 06:19:10;;;;;;;11.13;6.28;;;;;;;;;;4973438;28;20101;-63
2022/02/13 06:21:36;;;;;;;9.80;6.68;;;;;;;;;;4973584;28;20043;-64
2022/02/13 06:24:03;;;;;;;10.55;7.25;;;;;;;;;;4973006;28;20498;-64
2022/02/13 06:26:33;;;;;;;11.13;6.18;;;;;;;;;;4973382;28;20557;-63
2022/02/13 06:29:00;;;;;;;9.65;6.45;;;;;;;;;;4973337;28;20050;-62
2022/02/13 06:31:26;;;;;;;11.73;6.85;;;;;;;;;;4973218;28;20046;-64
2022/02/13 06:33:54;;;;;;;11.23;6.82;;;;;;;;;;4973102;28;20113;-64
2022/02/13 06:36:21;;;;;;;8.20;5.68;;;;;;;;;;4973269;28;20490;-64
2022/02/13 06:38:48;;;;;;;9.60;6.45;;;;;;;;;;4987872;28;20129;-64
2022/02/13 06:41:19;;;;;;;12.25;7.28;;;;;;;;;;4973214;28;20476;-64
2022/02/13 06:43:45;;;;;;;11.45;7.13;;;;;;;;;;4972853;28;20043;-64
2022/02/13 06:46:12;;;;;;;10.48;6.88;;;;;;;;;;4973145;28;20051;-63
2022/02/13 06:48:40;;;;;;;10.32;6.15;;;;;;;;;;4973185;28;20054;-64
2022/02/13 06:51:07;;;;;;;11.38;6.28;;;;;;;;;;4973093;28;20055;-63
2022/02/13 06:53:34;;;;;;;12.20;6.43;;;;;;;;;;4972660;28;20047;-64
2022/02/13 06:56:01;;;;;;;8.43;5.90;;;;;;;;;;4973067;28;20047;-64
2022/02/13 06:58:28;;;;;;;8.18;6.00;;;;;;;;;;4972701;28;20054;-65
2022/02/13 07:00:55;;;;;;;8.65;6.40;;;;;;;;;;4972946;28;20086;-64
2022/02/13 07:03:21;;;;;;;10.85;7.22;;;;;;;;;;4972587;28;20051;-64
2022/02/13 07:05:48;;;;;;;11.48;6.78;;;;;;;;;;4973002;28;20050;-64
2022/02/13 07:08:15;;;;;;;13.10;6.90;;;;;;;;;;4972856;28;20051;-63
2022/02/13 07:10:41;;;;;;;9.90;6.40;;;;;;;;;;4972893;28;20498;-64
2022/02/13 07:13:08;;;;;;;10.25;6.68;;;;;;;;;;4972438;28;20047;-64
2022/02/13 07:15:37;;;;;;;11.48;6.80;;;;;;;;;;4972450;28;20113;-64
2022/02/13 07:18:06;;;;;;;9.50;6.85;;;;;;;;;;4972717;28;20058;-63
2022/02/13 07:20:32;;;;;;;8.65;6.38;;;;;;;;;;4972889;28;20062;-64
2022/02/13 07:22:59;;;;;;;7.63;5.88;;;;;;;;;;4972401;28;20039;-63
2022/02/13 07:25:25;;;;;;;8.77;6.25;;;;;;;;;;4972701;28;20055;-64
2022/02/13 07:27:52;;;;;;;11.98;6.68;;;;;;;;;;4972701;28;20050;-65
2022/02/13 07:30:24;;;;;;;9.00;5.95;;;;;;;;;;4972747;28;20142;-65
2022/02/13 07:32:51;;;;;;;8.95;6.40;;;;;;;;;;4972317;28;20046;-65
2022/02/13 07:35:18;;;;;;;10.75;6.28;;;;;;;;;;4972542;28;20051;-64
2022/02/13 07:37:45;;;;;;;12.68;5.90;;;;;;;;;;4972702;28;20415;-64
2022/02/13 07:40:12;;;;;;;14.13;6.82;;;;;;;;;;4972443;28;20046;-63
2022/02/13 07:42:42;;;;;;;9.88;6.18;;;;;;;;;;4975249;28;20494;-62
2022/02/13 07:45:11;;;;;;;10.70;7.03;;;;;;;;;;4976197;28;20050;-64
2022/02/13 07:47:37;;;;;;;12.07;6.95;;;;;;;;;;4976260;28;20719;-64
2022/02/13 07:50:05;;;;;;;11.75;6.47;;;;;;;;;;4976201;28;20061;-65
2022/02/13 07:52:31;;;;;;;12.70;6.82;;;;;;;;;;4975864;28;20047;-64
2022/02/13 07:54:58;;;;;;;8.27;6.63;;;;;;;;;;4975986;28;20466;-64
2022/02/13 07:57:24;;;;;;;9.80;5.78;;;;;;;;;;4976127;28;20062;-64
2022/02/13 07:59:51;;;;;;;9.13;6.10;;;;;;;;;;4976598;28;20102;-64
2022/02/13 08:02:18;;;;;;;10.55;5.80;;;;;;;;;;4976258;28;20074;-64
2022/02/13 08:04:44;;;;;;;7.80;5.15;;;;;;;;;;4976328;28;20431;-64
2022/02/13 08:07:11;;;;;;;10.88;6.10;;;;;;;;;;4976481;28;20055;-64
2022/02/13 08:09:37;;;;;;;8.45;5.10;;;;;;;;;;4976374;28;20055;-64
2022/02/13 08:12:04;;;;;;;7.57;5.15;;;;;;;;;;4975917;28;20055;-64
2022/02/13 08:14:32;;;;;;;10.90;5.43;;;;;;;;;;4975821;28;20062;-64
2022/02/13 08:16:59;;;;;;;9.68;5.47;;;;;;;;;;4975902;28;20054;-64
2022/02/13 08:19:25;;;;;;;7.05;4.80;;;;;;;;;;4976082;28;20636;-64
2022/02/13 08:21:52;;;;;;;9.13;5.90;;;;;;;;;;4976001;28;20051;-64
2022/02/13 08:24:19;;;;;;;9.95;5.70;;;;;;;;;;4975615;28;20113;-64
2022/02/13 08:26:46;;;;;;;8.75;5.13;;;;;;;;;;4978320;28;20098;-63
2022/02/13 08:29:14;;;;;;;7.65;5.28;;;;;;;;;;4977831;28;20438;-63
2022/02/13 08:31:40;;;;;;;11.20;5.35;;;;;;;;;;4977867;28;20054;-62
2022/02/13 08:34:07;;;;;;;7.13;4.90;;;;;;;;;;4975226;28;20047;-61
2022/02/13 08:36:34;;;;;;;8.27;4.68;;;;;;;;;;4975661;28;20059;-62
2022/02/13 08:39:01;;;;;;;7.55;4.93;;;;;;;;;;4975436;28;20055;-62
2022/02/13 08:41:28;;;;;;;7.97;5.43;;;;;;;;;;4975342;28;20047;-62
2022/02/13 08:43:54;;;;;;;7.35;4.97;;;;;;;;;;4975062;28;20105;-61
2022/02/13 08:46:23;;;;;;;9.93;5.28;;;;;;;;;;4975291;28;20055;-60
2022/02/13 08:48:50;;;;;;;8.77;5.60;;;;;;;;;;4974999;28;20559;-62
2022/02/13 08:51:16;;;;;;;8.38;5.75;;;;;;;;;;4975136;28;20047;-61
2022/02/13 08:53:43;;;;;;;12.30;6.28;;;;;;;;;;4973426;28;20051;-62
2022/02/13 08:56:09;;;;;;;10.68;5.70;;;;;;;;;;4975026;28;20058;-61
2022/02/13 08:58:36;;;;;;;8.50;5.38;;;;;;;;;;4975088;28;20090;-62
2022/02/13 09:01:03;;;;;;;7.90;5.05;;;;;;;;;;4974911;28;20051;-61
2022/02/13 09:03:30;;;;;;;6.53;4.65;;;;;;;;;;4974601;28;20525;-62
2022/02/13 09:05:57;;;;;;;8.63;5.45;;;;;;;;;;4974878;28;20295;-61
2022/02/13 09:08:24;;;;;;;8.90;5.45;;;;;;;;;;4973600;28;20474;-62
2022/02/13 09:10:50;;;;;;;8.75;4.88;;;;;;;;;;4974752;28;20075;-62
2022/02/13 09:13:17;;;;;;;10.65;5.32;;;;;;;;;;4974412;28;20105;-62
2022/02/13 09:15:44;;;;;;;6.72;4.88;;;;;;;;;;4974286;28;20054;-62
2022/02/13 09:18:11;;;;;;;9.77;5.47;;;;;;;;;;4974662;28;20086;-62
2022/02/13 09:20:44;;;;;;;14.50;5.97;;;;;;;;;;4975448;28;20142;-63
2022/02/13 09:23:14;;;;;;;13.75;5.93;;;;;;;;;;4974698;28;20053;-63
2022/02/13 09:25:41;;;;;;;11.30;5.20;;;;;;;;;;4974828;28;20399;-62
2022/02/13 09:28:08;;;;;;;8.63;5.93;;;;;;;;;;4974866;28;20326;-63
2022/02/13 09:30:34;;;;;;;10.60;5.40;;;;;;;;;;4974763;28;20457;-63
2022/02/13 09:33:01;;;;;;;12.23;5.18;;;;;;;;;;4974123;28;20110;-61
2022/02/13 09:35:28;;;;;;;9.10;4.90;;;;;;;;;;4974198;28;20047;-63
2022/02/13 09:37:56;;;;;;;8.10;5.43;;;;;;;;;;4976392;28;20085;-63
2022/02/13 09:40:32;;;;;;;8.15;5.18;;;;;;;;;;4974227;28;20059;-63
2022/02/13 09:43:03;;;;;;;12.93;5.93;;;;;;;;;;4975155;28;20130;-64
2022/02/13 09:45:31;;;;;;;7.95;4.82;;;;;;;;;;4975200;28;20054;-63
2022/02/13 09:47:59;;;;;;;9.75;4.82;;;;;;;;;;4974975;28;20050;-63
2022/02/13 09:50:26;;;;;;;9.95;4.75;;;;;;;;;;4973789;28;20054;-63
2022/02/13 09:52:54;;;;;;;8.23;5.32;;;;;;;;;;4973292;28;20118;-63
2022/02/13 09:55:21;;;;;;;12.57;5.65;;;;;;;;;;4974716;28;20059;-63
2022/02/13 09:57:59;;;;;;;7.03;5.15;;;;;;;;;;4975123;28;20050;-63
2022/02/13 10:00:58;;;;;;;8.63;5.43;;;;;;;;;;4974440;28;20055;-63
2022/02/13 10:03:34;;;;;;;10.88;4.88;;;;;;;;;;4974401;28;20137;-63
2022/02/13 10:06:11;;;;;;;8.52;5.63;;;;;;;;;;4974371;28;20050;-63
2022/02/13 10:08:42;;;;;;;9.18;5.07;;;;;;;;;;4973836;28;20057;-61
2022/02/13 10:11:15;;;;;;;9.48;5.00;;;;;;;;;;4975680;28;20469;-63
2022/02/13 10:13:50;;;;;;;7.20;4.95;;;;;;;;;;4975060;28;20046;-63
2022/02/13 10:16:24;;;;;;;9.63;5.13;;;;;;;;;;4974583;28;20109;-63
2022/02/13 10:18:56;;;;;;;11.63;6.10;;;;;;;;;;4975316;28;20110;-63
2022/02/13 10:21:30;;;;;;;12.00;5.53;;;;;;;;;;4976142;28;20050;-64
2022/02/13 10:24:16;;;;;;;12.90;5.03;;;;;;;;;;4973292;28;20051;-63
2022/02/13 10:26:47;;;;;;;12.63;6.32;;;;;;;;;;4973473;28;20434;-62
2022/02/13 10:29:14;;;;;;;7.95;5.05;;;;;;;;;;4973420;28;20051;-62
2022/02/13 10:31:42;;;;;;;11.10;5.90;;;;;;;;;;4972168;28;20190;-62
2022/02/13 10:34:11;;;;;;;8.98;5.32;;;;;;;;;;4971633;28;20561;-63
2022/02/13 10:36:45;;;;;;;9.40;5.22;;;;;;;;;;4971975;28;20074;-62
2022/02/13 10:39:19;;;;;;;10.88;5.50;;;;;;;;;;4973128;28;20470;-63
2022/02/13 10:41:46;;;;;;;10.90;5.35;;;;;;;;;;4973467;28;20082;-63
2022/02/13 10:44:13;;;;;;;11.10;5.15;;;;;;;;;;4972848;28;20042;-63
2022/02/13 10:46:41;;;;;;;11.18;5.10;;;;;;;;;;4973218;28;20059;-63
2022/02/13 10:49:12;;;;;;;9.80;5.82;;;;;;;;;;4973440;28;20098;-63
2022/02/13 10:51:38;;;;;;;12.15;6.28;;;;;;;;;;4972956;28;20109;-64
2022/02/13 10:54:05;;;;;;;6.82;5.43;;;;;;;;;;4972699;28;20046;-64
2022/02/13 10:56:34;;;;;;;8.50;5.15;;;;;;;;;;4972663;28;20120;-63
2022/02/13 10:59:02;;;;;;;12.48;5.15;;;;;;;;;;4973137;28;20050;-63
2022/02/13 11:01:29;;;;;;;7.75;5.35;;;;;;;;;;4972833;28;20046;-64
2022/02/13 11:04:02;;;;;;;7.40;5.15;;;;;;;;;;4972854;28;20050;-63
2022/02/13 11:06:38;;;;;;;10.00;5.40;;;;;;;;;;4972756;28;20062;-63
2022/02/13 11:09:19;;;;;;;9.73;5.40;;;;;;;;;;4972986;28;20083;-63
2022/02/13 11:11:46;;;;;;;10.65;5.78;;;;;;;;;;4972017;28;20506;-63
2022/02/13 11:14:40;;;;;;;10.45;5.35;;;;;;;;;;4971806;28;20043;-63
2022/02/13 11:17:07;;;;;;;11.98;5.75;;;;;;;;;;4973902;28;20050;-63
2022/02/13 11:19:36;;;;;;;8.43;5.30;;;;;;;;;;4977184;28;20055;-63
2022/02/13 11:22:03;;;;;;;9.18;5.43;;;;;;;;;;4992623;28;20502;-63
2022/02/13 11:24:37;;;;;;;12.55;4.97;;;;;;;;;;4976050;28;20046;-63
2022/02/13 11:27:08;;;;;;;10.07;5.13;;;;;;;;;;4976870;28;20089;-62
2022/02/13 11:29:55;;;;;;;10.85;5.10;;;;;;;;;;4976854;28;20070;-62
2022/02/13 11:32:39;;;;;;;7.18;4.18;;;;;;;;;;4976381;28;20054;-63
2022/02/13 11:35:12;;;;;;;8.77;4.60;;;;;;;;;;4976914;28;20395;-63
2022/02/13 11:37:45;;;;;;;10.98;4.75;;;;;;;;;;4976998;28;20074;-63
2022/02/13 11:40:34;;;;;;;8.50;4.65;;;;;;;;;;4976619;28;20050;-63
2022/02/13 11:43:10;;;;;;;8.38;5.25;;;;;;;;;;4976364;28;20047;-61
2022/02/13 11:45:44;;;;;;;8.38;4.88;;;;;;;;;;4976626;28;20076;-63
2022/02/13 11:48:33;;;;;;;9.18;4.68;;;;;;;;;;4976673;28;20403;-63
2022/02/13 11:51:00;;;;;;;11.73;5.25;;;;;;;;;;4976288;28;20057;-63
2022/02/13 11:53:28;;;;;;;10.10;4.85;;;;;;;;;;4975778;28;20047;-63
2022/02/13 11:56:25;;;;;;;8.20;4.55;;;;;;;;;;4976336;28;20050;-63
2022/02/13 11:58:55;;;;;;;9.88;5.20;;;;;;;;;;4976300;28;20055;-63
2022/02/13 12:01:37;;;;;;;9.43;4.57;;;;;;;;;;4976025;28;20054;-63
2022/02/13 12:04:05;;;;;;;6.60;4.38;;;;;;;;;;4975908;28;20511;-63
2022/02/13 12:06:32;;;;;;;10.55;4.45;;;;;;;;;;4975806;28;20142;-63
2022/02/13 12:09:05;;;;;;;9.35;5.00;;;;;;;;;;4976000;28;20090;-63
2022/02/13 12:11:42;;;;;;;14.00;6.32;;;;;;;;;;4975891;28;20403;-63
2022/02/13 12:14:23;;;;;;;9.65;4.18;;;;;;;;;;4975262;28;20047;-64
2022/02/13 12:16:50;;;;;;;9.73;4.55;;;;;;;;;;4975969;28;20725;-62
2022/02/13 12:19:27;;;;;;;6.55;3.95;;;;;;;;;;4976196;28;20054;-64
2022/02/13 12:22:22;;;;;;;10.90;4.60;;;;;;;;;;4975598;28;20494;-63
2022/02/13 12:24:49;;;;;;;9.40;4.15;;;;;;;;;;4971092;28;20054;-63
2022/02/13 12:27:16;;;;;;;12.30;4.60;;;;;;;;;;4973856;28;20133;-63
2022/02/13 12:29:52;;;;;;;7.50;4.00;;;;;;;;;;4975670;28;20197;-64
2022/02/13 12:32:18;;;;;;;7.20;3.85;;;;;;;;;;4975340;28;20047;-63
2022/02/13 12:35:15;;;;;;;9.35;4.43;;;;;;;;;;4975510;28;20051;-64
2022/02/13 12:37:43;;;;;;;7.05;4.05;;;;;;;;;;4970864;28;20047;-61
2022/02/13 12:40:13;;;;;;;9.18;4.00;;;;;;;;;;4975282;28;20054;-61
2022/02/13 12:42:42;;;;;;;6.25;3.95;;;;;;;;;;4975027;28;20054;-61
2022/02/13 12:45:11;;;;;;;8.23;4.47;;;;;;;;;;4975256;28;20097;-62
2022/02/13 12:47:40;;;;;;;8.52;4.18;;;;;;;;;;4974065;28;20469;-62
2022/02/13 12:50:09;;;;;;;7.97;4.63;;;;;;;;;;4975270;28;20057;-62
2022/02/13 12:52:36;;;;;;;8.02;4.07;;;;;;;;;;4975033;28;20054;-61
2022/02/13 12:55:09;;;;;;;9.23;4.40;;;;;;;;;;4975173;28;20101;-61
2022/02/13 12:57:37;;;;;;;8.48;3.42;;;;;;;;;;4975232;28;20493;-61
2022/02/13 13:00:33;;;;;;;5.88;3.60;;;;;;;;;;4975132;28;20050;-61
2022/02/13 13:03:21;;;;;;;8.95;4.22;;;;;;;;;;4975055;28;20089;-62
2022/02/13 13:05:48;;;;;;;6.55;4.28;;;;;;;;;;4974813;28;20101;-62
2022/02/13 13:08:23;;;;;;;6.65;3.10;;;;;;;;;;4974916;28;20094;-61
2022/02/13 13:10:55;;;;;;;8.30;4.28;;;;;;;;;;4974865;28;20458;-62
2022/02/13 13:13:27;;;;;;;9.27;4.43;;;;;;;;;;4974209;28;20055;-62
2022/02/13 13:16:11;;;;;;;7.03;3.83;;;;;;;;;;4974199;28;20158;-62
2022/02/13 13:18:42;;;;;;;9.05;4.00;;;;;;;;;;4975080;28;20051;-62
2022/02/13 13:21:34;;;;;;;6.45;3.45;;;;;;;;;;4974839;28;20490;-62
2022/02/13 13:24:26;;;;;;;6.53;3.38;;;;;;;;;;4974465;28;20138;-62
2022/02/13 13:26:58;;;;;;;6.10;3.42;;;;;;;;;;4974857;28;20054;-62
2022/02/13 13:29:30;;;;;;;6.65;3.38;;;;;;;;;;4974474;28;20500;-62
2022/02/13 13:31:56;;;;;;;10.00;4.30;;;;;;;;;;4974688;28;20081;-62
2022/02/13 13:34:24;;;;;;;5.60;2.97;;;;;;;;;;4974133;28;20322;-62
2022/02/13 13:36:50;;;;;;;7.30;2.80;;;;;;;;;;4974572;28;20050;-62
2022/02/13 13:39:34;;;;;;;5.70;3.22;;;;;;;;;;4974302;28;20051;-61
2022/02/13 13:42:14;;;;;;;7.72;3.17;;;;;;;;;;4974444;28;20117;-62
2022/02/13 13:44:41;;;;;;;7.75;2.70;;;;;;;;;;4973515;28;20105;-62
2022/02/13 13:47:07;;;;;;;5.60;3.10;;;;;;;;;;4974281;28;20105;-62
2022/02/13 13:49:34;;;;;;;6.80;3.05;;;;;;;;;;4974504;28;20055;-62
2022/02/13 13:52:01;;;;;;;6.25;2.33;;;;;;;;;;4974276;28;20109;-62
2022/02/13 13:54:28;;;;;;;3.88;2.33;;;;;;;;;;4976102;28;20463;-62
2022/02/13 13:56:55;;;;;;;5.00;2.40;;;;;;;;;;4974295;28;20473;-62
2022/02/13 13:59:22;;;;;;;5.78;2.60;;;;;;;;;;4974265;28;20117;-61
2022/02/13 14:01:48;;;;;;;3.50;2.33;;;;;;;;;;4973872;28;20097;-59
2022/02/13 14:04:15;;;;;;;4.07;2.30;;;;;;;;;;4973487;28;20055;-62
2022/02/13 14:06:45;;;;;;;6.93;2.65;;;;;;;;;;4973702;28;20047;-62
2022/02/13 14:09:12;;;;;;;4.95;2.97;;;;;;;;;;4974000;28;20046;-61
2022/02/13 14:11:41;;;;;;;3.28;2.10;;;;;;;;;;4973629;28;20081;-61
2022/02/13 14:14:11;;;;;;;4.82;2.25;;;;;;;;;;4972736;28;20043;-62
2022/02/13 14:16:37;;;;;;;5.78;2.67;;;;;;;;;;4973617;28;20466;-61
2022/02/13 14:19:05;;;;;;;8.75;3.25;;;;;;;;;;4973549;28;20419;-61
2022/02/13 14:21:32;;;;;;;4.35;2.40;;;;;;;;;;4973522;28;20109;-62
2022/02/13 14:23:59;;;;;;;4.18;2.88;;;;;;;;;;4973742;28;20051;-62
2022/02/13 14:26:26;;;;;;;3.38;2.47;;;;;;;;;;4974522;28;20125;-64
2022/02/13 14:28:52;;;;;;;5.55;2.38;;;;;;;;;;4973628;28;20105;-64
2022/02/13 14:31:19;;;;;;;6.53;3.05;;;;;;;;;;4973392;28;20470;-63
2022/02/13 14:33:46;;;;;;;4.38;2.55;;;;;;;;;;4973002;28;20054;-64
2022/02/13 14:36:12;;;;;;;5.68;2.67;;;;;;;;;;4973302;28;20051;-64
2022/02/13 14:38:39;;;;;;;5.93;2.60;;;;;;;;;;4973832;28;20123;-64
2022/02/13 14:41:05;;;;;;;4.70;2.75;;;;;;;;;;4973611;28;20105;-63
2022/02/13 14:43:32;;;;;;;8.82;3.30;;;;;;;;;;4972845;28;20101;-63
2022/02/13 14:45:59;;;;;;;6.43;2.85;;;;;;;;;;4973452;28;20486;-64